Time,TemperatureF,DewpointF,PressureIn,WindDirection,WindDirectionDegrees,WindSpeedMPH,WindSpeedGustMPH,Humidity,HourlyPrecipIn,Conditions,Clouds,dailyrainin,SoftwareType,DateUTC
2013-02-22 00:00:00,25.0,-99.9,-100.00,ESE,106,14.0,28.0,-999,0.00,,,0.00,,2013-02-22 06:00:00,
2013-02-22 00:42:00,25.0,-99.9,-100.00,ESE,106,14.0,28.0,-999,0.00,,,0.00,,2013-02-22 06:42:00,
2013-02-22 00:52:00,25.0,-99.9,-100.00,ESE,106,14.0,28.0,-999,0.00,,,0.00,,2013-02-22 06:52:00,
2013-02-22 01:00:00,24.0,-99.9,-100.00,ESE,106,11.0,25.0,-999,0.00,,,0.00,,2013-02-22 07:00:00,
2013-02-22 01:42:00,24.0,-99.9,-100.00,ESE,106,11.0,25.0,-999,0.00,,,0.00,,2013-02-22 07:42:00,
2013-02-22 01:52:00,24.0,-99.9,-100.00,ESE,106,11.0,25.0,-999,0.00,,,0.00,,2013-02-22 07:52:00,
2013-02-22 02:00:00,24.0,-99.9,-100.00,East,97,11.0,20.0,-999,0.00,,,0.00,,2013-02-22 08:00:00,
2013-02-22 02:42:00,24.0,-99.9,-100.00,East,97,11.0,20.0,-999,0.00,,,0.00,,2013-02-22 08:42:00,
2013-02-22 02:52:00,24.0,-99.9,-100.00,East,97,11.0,20.0,-999,0.00,,,0.00,,2013-02-22 08:52:00,
2013-02-22 03:00:00,24.0,-99.9,-100.00,ESE,102,10.0,17.0,-999,0.00,,,0.00,,2013-02-22 09:00:00,
2013-02-22 03:32:00,24.0,-99.9,-100.00,ESE,102,10.0,17.0,-999,0.00,,,0.00,,2013-02-22 09:32:00,
2013-02-22 03:42:00,24.0,-99.9,-100.00,ESE,102,10.0,17.0,-999,0.00,,,0.00,,2013-02-22 09:42:00,
2013-02-22 03:52:00,24.0,-99.9,-100.00,ESE,102,10.0,17.0,-999,0.00,,,0.00,,2013-02-22 09:52:00,
2013-02-22 04:00:00,24.0,-99.9,-100.00,ESE,104,5.0,13.0,-999,0.00,,,0.00,,2013-02-22 10:00:00,
2013-02-22 04:42:00,24.0,-99.9,-100.00,ESE,104,5.0,13.0,-999,0.00,,,0.00,,2013-02-22 10:42:00,
2013-02-22 04:52:00,24.0,-99.9,-100.00,ESE,104,5.0,13.0,-999,0.00,,,0.00,,2013-02-22 10:52:00,
2013-02-22 05:00:00,23.0,-99.9,-100.00,NE,56,1.0,3.0,-999,0.00,,,0.00,,2013-02-22 11:00:00,
2013-02-22 05:42:00,23.0,-99.9,-100.00,NE,56,1.0,3.0,-999,0.00,,,0.00,,2013-02-22 11:42:00,
2013-02-22 05:52:00,23.0,-99.9,-100.00,NE,56,1.0,3.0,-999,0.00,,,0.00,,2013-02-22 11:52:00,
2013-02-22 06:00:00,23.0,-99.9,-100.00,NW,317,2.0,3.0,-999,0.00,,,0.00,,2013-02-22 12:00:00,
2013-02-22 06:43:00,23.0,-99.9,-100.00,NW,317,2.0,3.0,-999,0.00,,,0.00,,2013-02-22 12:43:00,
2013-02-22 06:52:00,23.0,-99.9,-100.00,NW,317,2.0,3.0,-999,0.00,,,0.00,,2013-02-22 12:52:00,
2013-02-22 07:00:00,23.0,-99.9,-100.00,NNW,345,1.0,5.0,-999,0.00,,,0.00,,2013-02-22 13:00:00,
2013-02-22 07:42:00,23.0,-99.9,-100.00,NNW,345,1.0,5.0,-999,0.00,,,0.00,,2013-02-22 13:42:00,
2013-02-22 07:52:00,23.0,-99.9,-100.00,NNW,345,1.0,5.0,-999,0.00,,,0.00,,2013-02-22 13:52:00,
2013-02-22 08:00:00,24.0,-99.9,-100.00,WNW,302,2.0,5.0,-999,0.00,,,0.00,,2013-02-22 14:00:00,
2013-02-22 08:42:00,24.0,-99.9,-100.00,WNW,302,2.0,5.0,-999,0.00,,,0.00,,2013-02-22 14:42:00,
2013-02-22 08:53:00,24.0,-99.9,-100.00,WNW,302,2.0,5.0,-999,0.00,,,0.00,,2013-02-22 14:53:00,
2013-02-22 09:00:00,26.0,-99.9,-100.00,WNW,303,3.0,5.0,-999,0.00,,,0.00,,2013-02-22 15:00:00,
2013-02-22 09:42:00,26.0,-99.9,-100.00,WNW,303,3.0,5.0,-999,0.00,,,0.00,,2013-02-22 15:42:00,
2013-02-22 09:52:00,26.0,-99.9,-100.00,WNW,303,3.0,5.0,-999,0.00,,,0.00,,2013-02-22 15:52:00,
2013-02-22 10:00:00,26.0,-99.9,-100.00,NW,304,5.0,9.0,-999,0.09,,,0.09,,2013-02-22 16:00:00,
2013-02-22 10:42:00,26.0,-99.9,-100.00,NW,304,5.0,9.0,-999,0.09,,,0.09,,2013-02-22 16:42:00,
2013-02-22 10:52:00,26.0,-99.9,-100.00,NW,304,5.0,9.0,-999,0.09,,,0.09,,2013-02-22 16:52:00,
2013-02-22 11:00:00,27.0,-99.9,-100.00,West,281,6.0,11.0,-999,0.05,,,0.14,,2013-02-22 17:00:00,
2013-02-22 11:42:00,27.0,-99.9,-100.00,West,281,6.0,11.0,-999,0.05,,,0.14,,2013-02-22 17:42:00,
2013-02-22 11:52:00,27.0,-99.9,-100.00,West,281,6.0,11.0,-999,0.05,,,0.14,,2013-02-22 17:52:00,
2013-02-22 12:00:00,29.0,-99.9,-100.00,West,279,7.0,14.0,-999,0.03,,,0.17,,2013-02-22 18:00:00,
2013-02-22 12:42:00,29.0,-99.9,-100.00,West,279,7.0,14.0,-999,0.03,,,0.17,,2013-02-22 18:42:00,
2013-02-22 12:52:00,29.0,-99.9,-100.00,West,279,7.0,14.0,-999,0.03,,,0.17,,2013-02-22 18:52:00,
2013-02-22 14:00:00,28.0,-99.9,-100.00,West,281,8.0,14.0,-999,0.00,,,0.17,,2013-02-22 20:00:00,
2013-02-22 15:00:00,29.0,-99.9,-100.00,WNW,283,9.0,20.0,-999,0.00,,,0.17,,2013-02-22 21:00:00,
2013-02-22 15:42:00,29.0,-99.9,-100.00,WNW,283,9.0,20.0,-999,0.00,,,0.17,,2013-02-22 21:42:00,
2013-02-22 15:52:00,29.0,-99.9,-100.00,WNW,283,9.0,20.0,-999,0.00,,,0.17,,2013-02-22 21:52:00,
2013-02-22 16:00:00,27.0,-99.9,-100.00,WNW,297,8.0,20.0,-999,0.00,,,0.17,,2013-02-22 22:00:00,
2013-02-22 16:42:00,27.0,-99.9,-100.00,WNW,297,8.0,20.0,-999,0.00,,,0.17,,2013-02-22 22:42:00,
2013-02-22 16:52:00,27.0,-99.9,-100.00,WNW,297,8.0,20.0,-999,0.00,,,0.17,,2013-02-22 22:52:00,
2013-02-22 17:00:00,25.0,-99.9,-100.00,NW,304,6.0,16.0,-999,0.00,,,0.17,,2013-02-22 23:00:00,
2013-02-22 17:42:00,25.0,-99.9,-100.00,NW,304,6.0,16.0,-999,0.00,,,0.17,,2013-02-22 23:42:00,
2013-02-22 17:52:00,25.0,-99.9,-100.00,NW,304,6.0,16.0,-999,0.00,,,0.17,,2013-02-22 23:52:00,
2013-02-22 19:00:00,25.0,-99.9,-100.00,West,276,6.0,12.0,-999,0.00,,,0.17,,2013-02-23 01:00:00,
2013-02-22 19:42:00,25.0,-99.9,-100.00,West,276,6.0,12.0,-999,0.00,,,0.17,,2013-02-23 01:42:00,
2013-02-22 19:52:00,25.0,-99.9,-100.00,West,276,6.0,12.0,-999,0.00,,,0.17,,2013-02-23 01:52:00,
2013-02-22 20:00:00,24.0,-99.9,-100.00,West,276,6.0,18.0,-999,0.00,,,0.17,,2013-02-23 02:00:00,
2013-02-22 20:42:00,24.0,-99.9,-100.00,West,276,6.0,18.0,-999,0.00,,,0.17,,2013-02-23 02:42:00,
2013-02-22 20:52:00,24.0,-99.9,-100.00,West,276,6.0,18.0,-999,0.00,,,0.17,,2013-02-23 02:52:00,
2013-02-22 21:00:00,24.0,-99.9,-100.00,WNW,282,4.0,13.0,-999,0.00,,,0.17,,2013-02-23 03:00:00,
2013-02-22 21:42:00,24.0,-99.9,-100.00,WNW,282,4.0,13.0,-999,0.00,,,0.17,,2013-02-23 03:42:00,
2013-02-22 21:52:00,24.0,-99.9,-100.00,WNW,282,4.0,13.0,-999,0.00,,,0.17,,2013-02-23 03:52:00,
2013-02-22 22:00:00,24.0,-99.9,-100.00,West,272,5.0,14.0,-999,0.00,,,0.17,,2013-02-23 04:00:00,
2013-02-22 22:42:00,24.0,-99.9,-100.00,West,272,5.0,14.0,-999,0.00,,,0.17,,2013-02-23 04:42:00,
2013-02-22 22:52:00,24.0,-99.9,-100.00,West,272,5.0,14.0,-999,0.00,,,0.17,,2013-02-23 04:52:00,
2013-02-22 23:00:00,23.0,-99.9,-100.00,West,275,5.0,9.0,-999,0.00,,,0.17,,2013-02-23 05:00:00,
2013-02-22 23:42:00,23.0,-99.9,-100.00,West,275,5.0,9.0,-999,0.00,,,0.17,,2013-02-23 05:42:00,
2013-02-22 23:52:00,23.0,-99.9,-100.00,West,275,5.0,9.0,-999,0.00,,,0.17,,2013-02-23 05:52:00,